Skip to content
You are here: Gozo Weather
Gozo Weather Station for the very latest live weather conditions from Gozo and Malta
 
 TIME   TEMPERATURE   WINDSPEED   DIRECTION   HUMIDITY   BAROMETER   RAINFALL 
1:05 18.1°C (64.6°F) 0.0 kmh (0.0 mph) NNW 70% 1023.0hPa (30.21 inHg) 0.0mm (0.00 in.)
12:05 17.8°C (64.0 °F) 0.0 kmh (0.0 mph) W 70% 1024.0hPa (30.24 inHg) 0.0mm (0.00 in.)
11:05 17.5°C (63.5 °F) 0.0 kmh (0.0 mph) W 71% 1025.0hPa (30.27 inHg) 0.0mm (0.00 in.)
10:05 16.3°C (61.3 °F) 9.3 kmh (5.8 mph) SW 71% 1025.0hPa (30.27 inHg) 0.0mm (0.00 in.)
9:05 15.9°C (60.6 °F) 11.1 kmh (6.9 mph) NNW 71% 1025.0hPa (30.27 inHg) 0.0mm (0.00 in.)
7:58 14.0°C (57.2 °F) 0.0 kmh (0.0 mph) SW 71% 1024.0hPa (30.24 inHg) 0.0mm (0.00 in.)
6:58 13.8°C (56.8 °F) 11.1 kmh (6.9 mph) SSW 71% 1024.0hPa (30.24 inHg) 0.0mm (0.00 in.)
5:58 13.7°C (56.7 °F) 16.7 kmh (10.4 mph) N 72% 1024.0hPa (30.24 inHg) 0.0mm (0.00 in.)
4:58 13.7°C (56.7 °F) 14.8 kmh (9.2 mph) N 72% 1023.0hPa (30.21 inHg) 0.0mm (0.00 in.)
3:58 13.8°C (56.8 °F) 0.0 kmh (0.0 mph) N 72% 1024.0hPa (30.24 inHg) 0.0mm (0.00 in.)
2:58 13.9°C (57.0 °F) 0.0 kmh (0.0 mph) NNW 73% 1024.0hPa (30.24 inHg) 0.0mm (0.00 in.)
1:58 13.4°C (56.1 °F) 0.0 kmh (0.0 mph) WNW 73% 1024.0hPa (30.24 inHg) 0.0mm (0.00 in.)
12:58 13.6°C (56.5 °F) 0.0 kmh (0.0 mph) WNW 73% 1024.0hPa (30.24 inHg) 0.0mm (0.00 in.)
11:58 13.8°C (56.8 °F) 0.0 kmh (0.0 mph) W 73% 1025.0hPa (30.27 inHg) 0.0mm (0.00 in.)
10:58 14.0°C (57.2 °F) 13.0 kmh (8.1 mph) N 74% 1025.0hPa (30.27 inHg) 0.0mm (0.00 in.)
9:58 13.9°C (57.0 °F) 0.0 kmh (0.0 mph) N 74% 1025.0hPa (30.27 inHg) 0.0mm (0.00 in.)
8:58 13.9°C (57.0 °F) 0.0 kmh (0.0 mph) WNW 74% 1025.0hPa (30.27 inHg) 0.0mm (0.00 in.)
7:58 14.0°C (57.2 °F) 0.0 kmh (0.0 mph) NNW 74% 1024.0hPa (30.24 inHg) 0.0mm (0.00 in.)
6:58 14.1°C (57.4 °F) 0.0 kmh (0.0 mph) NNW 73% 1024.0hPa (30.24 inHg) 0.0mm (0.00 in.)
5:58 14.5°C (58.1 °F) 0.0 kmh (0.0 mph) NNW 72% 1023.0hPa (30.21 inHg) 0.0mm (0.00 in.)
4:58 14.8°C (58.6 °F) 9.3 kmh (5.8 mph) NNW 71% 1023.0hPa (30.21 inHg) 0.0mm (0.00 in.)
3:58 15.4°C (59.7 °F) 9.3 kmh (5.8 mph) N 70% 1023.0hPa (30.21 inHg) 0.0mm (0.00 in.)
2:58 16.6°C (61.9 °F) 13.0 kmh (8.1 mph) N 71% 1023.0hPa (30.21 inHg) 0.0mm (0.00 in.)
1:58 16.7°C (62.1 °F) 13.0 kmh (8.1 mph) N 71% 1023.0hPa (30.21 inHg) 0.0mm (0.00 in.)

You need the latest version of Flash Player to view some of our content.


Why not download and install the latest version now?
It will only take you a moment and will ensure that you can view all the latest flash designed websites.

Translate this page

Animated Satellite

Click per aprire http://www.gozo.ws/Animation.php
copyright 2014 EUMETSAT

European Lightning Activity


Please click image for full size

Sponsored Links